KRIW

Riverton Regional Airport

Riverton, Wyoming, USA
METAR KRIW 191453Z AUTO 19003KT 10SM CLR 02/M06 A2967 RMK AO2 SLP063 T00171056 58009
Observed Flight Rules
Jan-19 @ 14:53 UTC (28 minutes ago) Visual Flight Rules
Wind Visibility Clouds
190° at 3 knots 10 miles
  • Clear skies
Temperatures Readings
Current 2°C / 36°F
Dewpoint -6°C / 21°F
Humidity 56%
Altimeter 29.67" Hg
Pressure 1006.3 hPa
Elevation 1697
METAR KRIW 191453Z AUTO 19003KT 10SM CLR 02/M06 A2967 RMK AO2 SLP063 T00171056 58009
Observed Flight Rules
Jan-19 @ 14:53 UTC
(28 minutes ago)
VFR
Wind Visibility
190° at 3 knots 10 miles
Clouds
  • Clear skies
Temperature Dewpoint
2°C / 36°F -6°C / 21°F
Humidity Altimeter Pressure
56% 29.67" Hg 1006.3 hPa